Time;durP1;ratioP1;P1;durP2;ratioP2;P2;SDS_P1;SDS_P2;PMS_P1;PMS_P2;Temp;Humidity;BMP_temperature;BMP_pressure;BME280_temperature;BME280_humidity;BME280_pressure;Samples;Min_cycle;Max_cycle;Signal;HPM_P1;HPM_P2
2022/03/18 00:01:49;;;;;;;31.50;15.35;;;;;;;7.91;36.71;102076.03;4976417;28;96917;-82
2022/03/18 00:04:14;;;;;;;29.40;14.30;;;;;;;7.96;37.06;102076.03;4968169;28;97286;-82
2022/03/18 00:06:40;;;;;;;24.77;13.35;;;;;;;7.88;37.09;102077.72;4978530;28;101049;-82
2022/03/18 00:09:06;;;;;;;24.73;14.18;;;;;;;7.96;37.08;102086.50;4975115;28;97816;-83
2022/03/18 00:11:32;;;;;;;22.23;13.27;;;;;;;7.98;36.91;102087.38;4947963;28;97167;-83
2022/03/18 00:13:58;;;;;;;28.45;13.15;;;;;;;7.89;37.03;102072.53;4955769;28;96871;-82
2022/03/18 00:16:24;;;;;;;26.67;14.45;;;;;;;7.98;36.91;102086.50;4979789;28;98465;-83
2022/03/18 00:18:50;;;;;;;28.00;14.82;;;;;;;7.78;37.22;102057.66;4980020;28;98337;-83
2022/03/18 00:21:16;;;;;;;22.60;13.13;;;;;;;7.93;37.28;102104.78;4978396;28;96829;-82
2022/03/18 00:23:42;;;;;;;27.05;13.20;;;;;;;7.67;37.52;102068.03;4979796;28;97176;-83
2022/03/18 00:26:08;;;;;;;25.48;14.57;;;;;;;7.90;37.08;102099.53;4963033;28;101246;-82
2022/03/18 00:28:33;;;;;;;26.95;13.15;;;;;;;7.85;37.62;102104.75;4940279;28;101416;-83
2022/03/18 00:30:59;;;;;;;25.83;14.15;;;;;;;7.87;37.99;102102.13;5005476;28;97600;-82
2022/03/18 00:33:25;;;;;;;26.40;13.80;;;;;;;7.89;37.82;102097.81;4954417;28;96834;-83
2022/03/18 00:35:51;;;;;;;26.90;14.10;;;;;;;7.91;37.87;102104.78;4959095;28;101391;-82
2022/03/18 00:38:17;;;;;;;23.52;13.60;;;;;;;7.93;37.88;102108.28;4946116;28;100780;-82
2022/03/18 00:40:44;;;;;;;25.88;13.50;;;;;;;7.69;38.14;102090.72;4957048;28;96763;-82
2022/03/18 00:43:11;;;;;;;21.73;13.93;;;;;;;7.72;38.39;102103.81;4977688;28;97279;-83
2022/03/18 00:45:36;;;;;;;23.93;13.53;;;;;;;7.69;38.26;102100.31;4980832;28;98758;-82
2022/03/18 00:53:31;;;;;;;25.33;14.10;;;;;;;7.58;39.04;102104.59;4982483;28;96859;-83
2022/03/18 00:55:56;;;;;;;25.02;14.93;;;;;;;7.65;38.97;102107.25;4950026;28;101196;-84
2022/03/18 00:58:22;;;;;;;27.05;14.23;;;;;;;7.59;38.97;102109.84;4948140;28;101564;-83
2022/03/18 01:00:47;;;;;;;28.55;14.80;;;;;;;7.68;38.63;102107.28;4969669;28;97280;-83
2022/03/18 01:03:15;;;;;;;23.58;14.13;;;;;;;7.66;38.60;102115.97;4965339;28;96850;-82
2022/03/18 01:05:42;;;;;;;24.33;14.02;;;;;;;7.63;38.80;102108.97;4962743;28;101427;-83
2022/03/18 01:08:08;;;;;;;28.47;14.67;;;;;;;7.70;38.58;102117.72;4965964;28;101627;-83
2022/03/18 01:10:34;;;;;;;29.73;15.18;;;;;;;7.67;39.00;102113.34;4970173;28;96782;-83
2022/03/18 01:13:01;;;;;;;26.25;14.63;;;;;;;7.54;38.76;102108.06;4985556;28;96868;-83
2022/03/18 01:15:26;;;;;;;29.13;14.70;;;;;;;7.52;38.69;102115.88;4963284;28;98064;-83
2022/03/18 01:17:52;;;;;;;26.38;14.57;;;;;;;7.57;38.94;102108.06;4967187;28;101828;-83
2022/03/18 01:20:17;;;;;;;26.25;13.82;;;;;;;7.57;39.21;102113.28;4960052;28;96868;-82
2022/03/18 01:22:43;;;;;;;27.38;15.23;;;;;;;7.57;38.88;102102.84;4948843;28;96909;-82
2022/03/18 01:25:09;;;;;;;25.15;14.38;;;;;;;7.49;39.09;102105.38;4970845;28;97449;-82
2022/03/18 01:27:34;;;;;;;23.08;13.82;;;;;;;7.53;38.94;102111.50;4976889;28;101214;-82
2022/03/18 01:30:00;;;;;;;26.10;14.15;;;;;;;7.35;39.44;102080.91;4962028;28;96783;-83
2022/03/18 01:32:26;;;;;;;24.30;14.63;;;;;;;7.62;38.91;102125.53;4979374;28;96833;-83
2022/03/18 01:34:51;;;;;;;28.40;15.30;;;;;;;7.43;39.06;102102.75;4995660;28;97419;-82
2022/03/18 01:37:17;;;;;;;30.45;15.20;;;;;;;7.40;39.18;102119.25;4995197;28;97894;-83
2022/03/18 01:39:43;;;;;;;25.75;13.85;;;;;;;7.36;38.91;102109.66;4978148;28;96723;-83
2022/03/18 01:42:08;;;;;;;26.15;13.13;;;;;;;7.41;39.23;102122.75;4964472;28;97301;-83
2022/03/18 01:44:42;;;;;;;30.15;14.07;;;;;;;7.31;39.00;102123.56;4954388;28;98254;-83
2022/03/18 01:47:09;;;;;;;24.02;13.70;;;;;;;7.03;39.49;102094.56;4980123;28;100713;-83
2022/03/18 01:49:34;;;;;;;27.47;14.27;;;;;;;7.17;39.55;102121.69;4986091;28;97315;-83
2022/03/18 01:52:00;;;;;;;26.27;15.43;;;;;;;7.18;39.02;102133.00;4958763;28;96876;-83
2022/03/18 01:54:44;;;;;;;26.30;15.18;;;;;;;7.18;39.30;102120.81;4956715;28;101081;-83
2022/03/18 01:57:10;;;;;;;25.10;14.07;;;;;;;6.99;39.32;102109.34;4966416;28;101593;-83
2022/03/18 01:59:36;;;;;;;31.00;15.25;;;;;;;7.15;39.36;102140.81;4947200;28;96709;-83
2022/03/18 02:02:02;;;;;;;29.88;14.45;;;;;;;7.14;39.12;102137.34;4969765;28;96829;-83
2022/03/18 02:04:27;;;;;;;26.67;14.52;;;;;;;7.12;39.38;102130.34;4959324;28;101686;-83
2022/03/18 02:06:54;;;;;;;28.60;13.83;;;;;;;7.20;39.07;102145.22;4948633;28;101198;-83
2022/03/18 02:09:20;;;;;;;32.72;14.80;;;;;;;7.17;39.56;102126.03;4969544;28;96711;-83
2022/03/18 02:11:46;;;;;;;27.00;13.00;;;;;;;7.24;39.34;102127.81;4977412;28;96809;-81
2022/03/18 02:14:12;;;;;;;24.27;13.63;;;;;;;7.20;39.07;102136.50;4973884;28;101551;-84
2022/03/18 02:16:39;;;;;;;26.53;14.67;;;;;;;7.13;39.28;102130.38;4958124;28;100816;-83
2022/03/18 02:19:06;;;;;;;24.73;13.37;;;;;;;7.15;39.24;102136.47;4972556;28;97110;-83
2022/03/18 02:21:34;;;;;;;28.00;14.30;;;;;;;6.97;39.49;102118.03;4963016;28;97437;-83
2022/03/18 02:24:00;;;;;;;24.03;13.33;;;;;;;7.12;39.43;102149.50;4946191;28;101662;-85
2022/03/18 02:26:26;;;;;;;24.80;14.27;;;;;;;7.20;39.14;102152.19;4964406;28;101156;-83
2022/03/18 02:28:52;;;;;;;28.93;14.70;;;;;;;7.16;39.49;102164.34;4968150;28;97159;-82
2022/03/18 02:31:18;;;;;;;27.40;15.23;;;;;;;7.20;39.67;102167.84;4939335;28;97384;-83
2022/03/18 02:33:44;;;;;;;30.55;14.90;;;;;;;6.95;39.17;102138.91;4985944;28;97992;-83
2022/03/18 02:36:09;;;;;;;29.23;15.57;;;;;;;7.05;39.79;102147.69;4965731;28;97312;-84
2022/03/18 02:38:35;;;;;;;26.70;14.73;;;;;;;6.79;39.70;102119.59;4979397;28;96995;-81
2022/03/18 02:41:00;;;;;;;28.27;14.85;;;;;;;7.17;39.51;102179.16;4959449;28;97039;-83
2022/03/18 02:43:26;;;;;;;26.05;14.80;;;;;;;7.20;39.40;102173.94;4960551;28;101140;-83
2022/03/18 02:45:52;;;;;;;26.08;13.57;;;;;;;6.99;39.33;102148.50;4964801;28;101256;-83
2022/03/18 02:48:17;;;;;;;24.37;14.13;;;;;;;7.16;39.30;102177.41;4964191;28;96673;-83
2022/03/18 02:50:43;;;;;;;24.77;14.23;;;;;;;7.11;39.27;102168.66;4978475;28;96846;-81
2022/03/18 02:53:09;;;;;;;29.37;14.47;;;;;;;7.06;39.36;102177.28;4977494;28;97383;-83
2022/03/18 02:55:35;;;;;;;25.93;14.27;;;;;;;7.08;39.43;102179.06;4977638;28;101591;-83
2022/03/18 02:58:00;;;;;;;25.05;13.48;;;;;;;7.07;38.93;102185.16;4970896;28;97066;-86
2022/03/18 03:00:26;;;;;;;27.35;13.82;;;;;;;6.97;39.29;102173.72;4948007;28;96831;-84
2022/03/18 03:02:52;;;;;;;31.10;14.27;;;;;;;6.96;39.25;102164.16;4975967;28;101627;-83
2022/03/18 03:08:02;;;;;;;24.63;14.20;;;;;;;6.97;39.58;102197.22;4978790;28;97002;-83
2022/03/18 03:10:32;;;;;;;24.27;12.63;;;;;;;6.87;39.22;102189.31;4976933;28;97088;-82
2022/03/18 03:13:00;;;;;;;26.35;15.20;;;;;;;6.88;39.49;102199.75;4959992;28;102536;-83
2022/03/18 03:15:26;;;;;;;29.03;14.77;;;;;;;6.91;39.25;102186.72;4978265;28;97500;-83
2022/03/18 03:17:52;;;;;;;25.88;13.02;;;;;;;6.92;39.00;102198.03;4973720;28;97008;-83
2022/03/18 03:20:17;;;;;;;25.03;13.40;;;;;;;6.73;39.17;102171.72;4974940;28;96984;-84
2022/03/18 03:22:43;;;;;;;26.67;13.97;;;;;;;6.87;38.83;102205.84;4959490;28;101425;-83
2022/03/18 03:25:09;;;;;;;28.53;13.37;;;;;;;6.80;39.09;102206.59;4960686;28;101070;-83
2022/03/18 03:27:34;;;;;;;23.50;12.83;;;;;;;6.78;39.29;102206.59;4995566;28;97117;-83
2022/03/18 03:30:03;;;;;;;24.00;12.93;;;;;;;6.79;39.39;102215.31;4976192;28;96929;-86
2022/03/18 03:32:29;;;;;;;25.63;12.87;;;;;;;6.57;39.08;102178.53;4971500;28;101095;-83
2022/03/18 03:34:57;;;;;;;24.10;13.27;;;;;;;6.74;38.78;102212.63;4953129;28;97543;-85
2022/03/18 03:37:22;;;;;;;27.57;13.03;;;;;;;6.61;38.94;102196.81;4958782;28;96852;-83
2022/03/18 03:39:48;;;;;;;27.63;13.70;;;;;;;6.37;38.93;102161.75;4961320;28;96853;-82
2022/03/18 03:42:13;;;;;;;28.37;13.57;;;;;;;6.66;38.89;102221.22;4965679;28;101347;-83
2022/03/18 03:44:39;;;;;;;28.95;13.63;;;;;;;6.55;39.10;102213.28;4949086;28;101541;-82
2022/03/18 03:47:05;;;;;;;31.73;15.40;;;;;;;6.50;39.18;102217.56;4962752;28;96812;-83
2022/03/18 03:49:30;;;;;;;27.30;13.70;;;;;;;6.53;39.19;102217.59;4982889;28;96805;-83
2022/03/18 03:51:56;;;;;;;28.83;13.73;;;;;;;6.58;38.85;102226.38;4984929;28;100898;-83
2022/03/18 03:54:22;;;;;;;24.70;12.33;;;;;;;6.55;39.12;102219.38;4949484;28;101307;-82
2022/03/18 03:56:47;;;;;;;26.97;12.43;;;;;;;6.55;39.12;102227.19;4961613;28;98168;-84
2022/03/18 03:59:13;;;;;;;25.33;13.17;;;;;;;6.64;38.75;102225.56;4975644;28;97021;-83
2022/03/18 04:01:38;;;;;;;29.00;13.10;;;;;;;6.41;38.81;102215.69;4955514;28;101411;-84
2022/03/18 04:04:04;;;;;;;24.37;12.97;;;;;;;6.53;38.79;102239.34;4947577;28;101306;-84
2022/03/18 04:06:30;;;;;;;23.70;12.47;;;;;;;6.49;38.91;102226.25;4993433;28;96869;-83
2022/03/18 04:08:56;;;;;;;27.42;12.93;;;;;;;6.48;38.63;102235.78;4953700;28;97117;-84
2022/03/18 04:11:21;;;;;;;24.70;12.18;;;;;;;6.33;38.30;102222.53;5009266;28;98067;-83
2022/03/18 04:13:47;;;;;;;23.57;12.57;;;;;;;6.49;38.52;102242.78;4962504;28;101593;-82
2022/03/18 04:16:13;;;;;;;27.33;13.88;;;;;;;6.38;38.35;102222.63;4970785;28;97093;-83
2022/03/18 04:18:38;;;;;;;24.97;12.70;;;;;;;6.48;38.38;102254.06;4954153;28;97741;-82
2022/03/18 04:21:04;;;;;;;24.00;13.00;;;;;;;6.40;38.52;102246.97;4976343;28;101887;-85
2022/03/18 04:23:29;;;;;;;30.13;12.10;;;;;;;6.32;38.45;102236.44;4984914;28;97609;-83
2022/03/18 04:25:55;;;;;;;21.30;11.48;;;;;;;6.41;38.48;102260.06;4980128;28;96976;-82
2022/03/18 04:28:20;;;;;;;25.30;12.03;;;;;;;6.40;38.54;102263.53;4967722;28;96953;-83
2022/03/18 04:30:46;;;;;;;26.73;13.37;;;;;;;6.41;38.35;102261.78;4979093;28;97391;-82
2022/03/18 04:33:11;;;;;;;22.07;11.93;;;;;;;6.43;38.09;102268.78;4960470;28;97387;-83
2022/03/18 04:35:37;;;;;;;25.83;12.27;;;;;;;6.40;37.91;102273.06;4953125;28;97821;-82
2022/03/18 04:38:02;;;;;;;25.10;11.97;;;;;;;6.31;38.35;102264.28;5011492;28;96885;-83
2022/03/18 04:40:28;;;;;;;24.13;12.03;;;;;;;6.13;37.96;102246.59;4978713;28;97258;-82
2022/03/18 04:42:54;;;;;;;20.07;11.27;;;;;;;6.09;38.34;102244.81;4968897;28;101123;-83
2022/03/18 04:45:19;;;;;;;22.83;11.93;;;;;;;6.30;38.57;102288.59;4976185;28;97171;-82
2022/03/18 04:47:45;;;;;;;24.13;12.13;;;;;;;6.20;38.30;102281.50;4979036;28;97165;-83
2022/03/18 04:50:12;;;;;;;23.03;11.53;;;;;;;6.08;38.33;102265.66;4957465;28;99189;-82
2022/03/18 04:52:38;;;;;;;24.80;12.27;;;;;;;6.23;38.51;102289.34;4946393;28;101376;-83
2022/03/18 04:55:04;;;;;;;28.43;13.53;;;;;;;6.05;38.85;102271.72;4951218;28;96948;-85
2022/03/18 04:57:31;;;;;;;23.80;12.90;;;;;;;6.19;38.65;102289.28;4983707;28;97289;-83
2022/03/18 04:59:57;;;;;;;27.60;13.63;;;;;;;6.17;38.60;102294.47;4952479;28;100992;-84
2022/03/18 05:02:24;;;;;;;22.17;12.03;;;;;;;6.07;38.99;102298.66;4979535;28;97720;-82
2022/03/18 05:04:50;;;;;;;25.03;13.60;;;;;;;6.08;39.08;102302.16;4969162;28;96946;-84
2022/03/18 05:07:17;;;;;;;25.33;12.77;;;;;;;6.00;39.46;102299.44;4968205;28;96770;-84
2022/03/18 05:09:45;;;;;;;25.43;13.97;;;;;;;5.97;39.49;102294.16;4967540;28;101288;-83
2022/03/18 05:12:13;;;;;;;26.23;13.10;;;;;;;5.98;39.79;102303.72;4970820;28;100556;-83
2022/03/18 05:14:39;;;;;;;27.27;13.73;;;;;;;5.88;39.82;102286.16;4971026;28;98397;-83
2022/03/18 05:17:05;;;;;;;26.20;14.53;;;;;;;5.96;39.87;102307.16;4957021;28;97329;-85
2022/03/18 05:19:32;;;;;;;28.50;14.83;;;;;;;5.87;40.25;102318.28;4984873;28;101392;-83
2022/03/18 05:21:57;;;;;;;27.80;15.03;;;;;;;5.72;40.07;102305.84;5006017;28;101558;-82
2022/03/18 05:24:23;;;;;;;30.50;15.30;;;;;;;5.78;40.30;102320.72;4973005;28;97259;-83
2022/03/18 05:26:49;;;;;;;29.43;15.53;;;;;;;5.79;40.31;102312.03;4961939;28;97301;-83
2022/03/18 05:29:15;;;;;;;29.80;15.07;;;;;;;5.85;40.05;102330.44;4965212;28;101217;-83
2022/03/18 05:31:42;;;;;;;29.33;14.63;;;;;;;5.80;40.59;102319.03;4987696;28;100789;-83
2022/03/18 05:34:07;;;;;;;24.77;13.27;;;;;;;5.74;40.32;102316.31;4990048;28;96843;-84
2022/03/18 05:36:33;;;;;;;32.23;14.50;;;;;;;5.84;40.28;102339.94;4942687;28;97141;-83
2022/03/18 05:38:59;;;;;;;22.10;12.87;;;;;;;5.86;40.45;102342.59;4941590;28;101526;-83
2022/03/18 05:41:25;;;;;;;26.43;14.10;;;;;;;5.77;40.36;102332.88;5004136;28;97402;-83
2022/03/18 05:43:50;;;;;;;25.33;13.43;;;;;;;5.77;40.10;102330.28;4957676;28;97072;-84
2022/03/18 05:46:16;;;;;;;30.17;13.23;;;;;;;5.77;40.59;102335.50;4987894;28;96892;-83
2022/03/18 05:48:41;;;;;;;22.27;12.53;;;;;;;5.61;40.20;102312.59;4958358;28;97854;-83
2022/03/18 05:51:07;;;;;;;25.70;12.97;;;;;;;5.75;40.47;102347.59;5003577;27;97361;-86
2022/03/18 05:53:33;;;;;;;26.03;12.57;;;;;;;5.78;40.74;102357.22;4995674;28;96935;-83
2022/03/18 05:58:43;;;;;;;30.50;13.90;;;;;;;5.76;40.85;102362.41;4967369;28;102234;-83
2022/03/18 06:01:10;;;;;;;25.90;13.40;;;;;;;5.59;40.94;102327.34;4978059;28;97969;-82
2022/03/18 06:03:36;;;;;;;22.83;12.87;;;;;;;5.82;40.73;102364.25;4950485;28;97516;-80
2022/03/18 06:06:04;;;;;;;26.43;14.13;;;;;;;5.70;40.57;102343.16;4967487;28;98114;-86
2022/03/18 06:13:58;;;;;;;33.77;14.30;;;;;;;5.80;40.28;102369.44;5003260;28;97319;-83
2022/03/18 06:16:24;;;;;;;26.77;13.53;;;;;;;5.74;40.68;102369.31;4990193;28;97198;-87
2022/03/18 06:18:50;;;;;;;26.87;14.20;;;;;;;5.79;40.63;102372.00;4985715;28;97851;-82
2022/03/18 06:21:16;;;;;;;29.03;13.90;;;;;;;5.74;40.53;102363.22;4967676;28;101283;-86
2022/03/18 06:23:42;;;;;;;30.23;14.03;;;;;;;5.87;40.45;102375.63;4955137;28;98153;-85
2022/03/18 06:26:08;;;;;;;24.17;13.33;;;;;;;5.81;40.38;102373.78;4956555;28;98220;-79
2022/03/18 06:28:34;;;;;;;27.27;13.90;;;;;;;5.87;40.37;102389.53;4968926;28;98644;-79
2022/03/18 06:31:00;;;;;;;24.77;12.67;;;;;;;5.91;40.04;102387.88;4969440;28;101873;-86
2022/03/18 06:33:27;;;;;;;26.73;13.40;;;;;;;5.95;40.31;102396.66;4972872;28;96882;-85
2022/03/18 06:35:53;;;;;;;21.67;12.40;;;;;;;6.00;40.05;102400.22;4972140;28;97084;-84
2022/03/18 06:38:19;;;;;;;27.67;13.47;;;;;;;5.92;40.03;102378.31;4953836;28;101249;-85
2022/03/18 06:40:45;;;;;;;24.87;13.20;;;;;;;6.12;39.65;102408.25;4952981;28;98311;-87
2022/03/18 06:43:12;;;;;;;24.93;12.60;;;;;;;6.27;39.75;102411.13;4941114;28;96720;-84
2022/03/18 06:45:37;;;;;;;24.10;13.40;;;;;;;6.45;39.32;102423.59;4957851;28;96946;-84
2022/03/18 06:48:03;;;;;;;27.80;13.70;;;;;;;6.55;39.44;102412.47;4952967;28;102342;-83
2022/03/18 06:50:29;;;;;;;26.93;13.60;;;;;;;6.64;38.79;102421.31;4966962;28;97808;-83
2022/03/18 06:52:55;;;;;;;22.10;12.73;;;;;;;6.57;39.54;102426.44;4955698;28;96698;-83
2022/03/18 06:55:20;;;;;;;28.50;13.37;;;;;;;6.71;39.01;102431.84;4956879;28;96905;-83
2022/03/18 06:57:46;;;;;;;26.30;14.83;;;;;;;6.58;38.94;102420.34;4953775;28;101183;-83
2022/03/18 07:00:12;;;;;;;28.20;14.13;;;;;;;6.53;39.03;102398.50;4955967;28;100790;-83
2022/03/18 07:02:37;;;;;;;26.80;14.67;;;;;;;6.77;38.67;102431.06;4966896;28;97059;-83
2022/03/18 07:05:04;;;;;;;26.30;15.03;;;;;;;6.82;38.55;102442.47;4963862;28;97563;-85
2022/03/18 07:07:30;;;;;;;24.57;14.20;;;;;;;6.87;38.47;102432.97;4963273;28;101643;-83
2022/03/18 07:09:56;;;;;;;25.67;13.43;;;;;;;7.01;38.32;102448.81;4953170;28;101286;-81
2022/03/18 07:12:22;;;;;;;26.53;13.83;;;;;;;7.09;38.26;102460.25;4962326;28;96916;-86
2022/03/18 07:14:47;;;;;;;24.80;13.77;;;;;;;6.98;38.31;102457.50;4960778;28;97216;-83
2022/03/18 07:19:57;;;;;;;29.90;15.25;;;;;;;7.01;38.21;102468.00;4968805;28;100573;-83
2022/03/18 07:22:26;;;;;;;23.43;13.00;;;;;;;7.10;37.61;102482.00;4955435;28;96705;-82
2022/03/18 07:24:52;;;;;;;28.73;14.50;;;;;;;7.12;38.22;102475.97;4943127;28;97515;-83
2022/03/18 07:27:17;;;;;;;27.17;14.43;;;;;;;7.22;37.98;102477.00;4975051;28;97479;-82
2022/03/18 07:29:43;;;;;;;26.70;14.77;;;;;;;7.21;37.72;102454.31;4983246;28;101532;-83
2022/03/18 07:32:09;;;;;;;25.92;13.77;;;;;;;7.41;37.70;102476.38;4962945;28;96768;-83
2022/03/18 07:34:34;;;;;;;23.17;13.73;;;;;;;7.40;37.43;102477.25;4943151;28;97283;-82
2022/03/18 07:37:00;;;;;;;27.63;15.00;;;;;;;7.60;36.99;102481.84;4958284;28;101246;-82
2022/03/18 07:39:25;;;;;;;26.02;14.70;;;;;;;7.71;37.00;102475.03;4973546;28;97323;-83
2022/03/18 07:41:51;;;;;;;30.58;15.07;;;;;;;7.92;36.81;102482.25;4973055;28;97473;-83
2022/03/18 07:44:17;;;;;;;30.27;15.23;;;;;;;7.92;36.40;102449.13;4992623;28;97444;-84
2022/03/18 07:46:43;;;;;;;27.13;14.65;;;;;;;8.31;36.45;102486.13;4987735;28;97970;-84
2022/03/18 07:49:09;;;;;;;27.17;15.35;;;;;;;8.48;36.02;102497.66;4966606;28;98240;-83
2022/03/18 07:51:34;;;;;;;30.80;15.20;;;;;;;8.50;35.56;102495.06;4974638;28;97282;-86
2022/03/18 07:54:00;;;;;;;27.17;14.70;;;;;;;8.56;35.48;102497.75;4976334;28;96962;-85
2022/03/18 07:56:26;;;;;;;31.95;15.27;;;;;;;8.71;35.89;102492.63;4956485;28;99365;-83
2022/03/18 07:58:51;;;;;;;29.20;15.50;;;;;;;8.89;35.41;102498.88;4975290;28;97118;-85
2022/03/18 08:01:17;;;;;;;26.83;15.07;;;;;;;8.94;35.19;102498.03;4977008;28;97276;-88
2022/03/18 08:03:42;;;;;;;25.58;15.07;;;;;;;8.81;34.80;102489.22;4958544;28;96962;-87
2022/03/18 08:06:08;;;;;;;28.90;14.95;;;;;;;9.06;35.09;102512.97;4975986;28;97792;-87
2022/03/18 08:08:34;;;;;;;27.50;14.48;;;;;;;9.24;34.76;102513.09;4993516;28;98049;-84
2022/03/18 08:11:00;;;;;;;25.40;14.98;;;;;;;9.39;34.62;102512.28;4973853;28;98057;-80
2022/03/18 08:13:25;;;;;;;28.95;15.50;;;;;;;9.63;34.55;102510.66;4963312;28;98478;-85
2022/03/18 08:15:51;;;;;;;28.35;15.40;;;;;;;9.65;33.98;102519.44;4988513;28;98494;-83
2022/03/18 08:18:18;;;;;;;29.88;14.63;;;;;;;9.79;34.15;102522.13;4966495;28;99291;-85
2022/03/18 08:20:44;;;;;;;24.58;14.77;;;;;;;10.14;33.44;102511.75;4977163;28;97181;-86
2022/03/18 08:23:14;;;;;;;26.42;15.77;;;;;;;10.40;33.29;102499.56;4997415;28;96923;-85
2022/03/18 08:25:40;;;;;;;26.85;15.55;;;;;;;10.69;32.62;102519.72;4979081;28;101501;-86
2022/03/18 08:28:07;;;;;;;26.63;15.55;;;;;;;10.82;32.66;102507.47;4979794;28;97042;-86
2022/03/18 08:30:33;;;;;;;26.45;15.82;;;;;;;10.84;32.08;102488.19;4962854;28;96996;-86
2022/03/18 08:32:58;;;;;;;33.00;15.75;;;;;;;11.48;32.17;102528.41;4992926;28;97306;-87
2022/03/18 08:35:24;;;;;;;29.08;15.90;;;;;;;11.83;31.37;102536.16;4967533;28;98200;-89
2022/03/18 08:37:56;;;;;;;25.27;15.25;;;;;;;12.05;30.83;102526.47;4961315;28;101404;-83
2022/03/18 08:40:22;;;;;;;30.55;16.05;;;;;;;12.17;30.75;102507.09;4965917;28;97482;-82
2022/03/18 08:42:48;;;;;;;27.42;14.52;;;;;;;12.58;30.58;102509.44;4959664;28;97717;-85
2022/03/18 08:45:13;;;;;;;26.15;15.10;;;;;;;13.14;30.37;102533.53;4988881;28;100491;-86
2022/03/18 08:47:39;;;;;;;25.73;15.85;;;;;;;13.45;29.22;102535.91;4980257;28;101662;-84
2022/03/18 08:50:05;;;;;;;28.48;14.85;;;;;;;13.75;28.90;102529.41;4969842;28;97627;-85
2022/03/18 08:52:31;;;;;;;25.13;16.27;;;;;;;13.84;28.44;102539.84;4972784;28;97957;-84
2022/03/18 08:54:56;;;;;;;31.60;15.82;;;;;;;14.00;28.05;102551.09;4963580;28;98142;-85
2022/03/18 08:57:22;;;;;;;27.88;15.10;;;;;;;14.07;27.92;102547.47;4968066;28;101614;-82
2022/03/18 08:59:48;;;;;;;35.75;15.85;;;;;;;14.39;28.22;102523.22;4958392;28;96799;-82
2022/03/18 09:02:13;;;;;;;25.05;15.52;;;;;;;14.83;27.78;102550.75;4950495;28;97035;-82
2022/03/18 09:04:39;;;;;;;26.38;14.60;;;;;;;14.90;27.50;102540.97;4980662;28;101806;-85
2022/03/18 09:07:05;;;;;;;29.27;16.40;;;;;;;15.13;27.19;102561.75;4998977;28;98562;-87
2022/03/18 09:09:30;;;;;;;28.63;15.55;;;;;;;15.10;27.01;102554.72;4986098;28;96874;-88
2022/03/18 09:11:56;;;;;;;28.17;17.05;;;;;;;15.16;26.78;102557.25;4981933;28;96544;-88
2022/03/18 09:14:22;;;;;;;24.88;16.42;;;;;;;15.34;26.82;102553.41;5014749;28;96987;-86
2022/03/18 09:16:49;;;;;;;26.15;15.93;;;;;;;15.71;26.74;102562.47;4991362;28;100364;-85
2022/03/18 09:19:15;;;;;;;25.25;16.35;;;;;;;16.12;26.54;102548.34;4945650;28;98694;-84
2022/03/18 09:21:41;;;;;;;35.08;19.20;;;;;;;16.33;26.02;102564.66;4972648;28;96922;-87
2022/03/18 09:24:07;;;;;;;28.48;17.77;;;;;;;16.48;25.35;102562.53;4973870;28;98512;-86
2022/03/18 09:26:32;;;;;;;32.55;17.80;;;;;;;16.64;25.64;102570.09;4974739;28;101577;-87
2022/03/18 09:28:58;;;;;;;31.67;18.23;;;;;;;16.70;25.16;102575.28;4942606;28;97790;-86
2022/03/18 09:31:23;;;;;;;28.63;16.65;;;;;;;16.72;24.63;102571.66;5007617;28;96892;-76
2022/03/18 09:33:49;;;;;;;26.27;16.40;;;;;;;16.80;24.47;102582.13;5007053;28;97427;-83
2022/03/18 09:36:18;;;;;;;26.30;15.52;;;;;;;16.95;24.72;102583.53;4987661;28;97382;-81
2022/03/18 09:38:45;;;;;;;23.27;15.63;;;;;;;16.97;24.52;102568.47;4959142;28;97254;-82
2022/03/18 09:41:11;;;;;;;26.00;15.38;;;;;;;17.07;24.61;102577.91;4971003;28;97183;-81
2022/03/18 09:43:38;;;;;;;27.27;15.70;;;;;;;16.84;24.35;102546.69;4961476;28;100615;-81
2022/03/18 09:46:05;;;;;;;27.23;16.08;;;;;;;17.06;24.20;102580.63;4969833;28;100866;-80
2022/03/18 09:48:31;;;;;;;24.38;15.48;;;;;;;17.02;24.36;102568.34;4969309;28;97307;-81
2022/03/18 09:50:58;;;;;;;25.27;14.85;;;;;;;17.17;24.43;102581.22;4948311;28;97028;-81
2022/03/18 09:53:24;;;;;;;27.15;16.58;;;;;;;17.24;24.12;102580.13;4963406;28;102101;-82
2022/03/18 09:55:53;;;;;;;24.73;15.55;;;;;;;17.23;24.65;102559.81;4959511;28;97466;-81
2022/03/18 09:58:22;;;;;;;24.80;15.40;;;;;;;17.60;24.56;102585.38;4974311;28;96775;-82
2022/03/18 10:00:51;;;;;;;25.23;16.15;;;;;;;17.86;24.17;102582.03;4953701;28;97530;-81
2022/03/18 10:03:19;;;;;;;26.85;16.02;;;;;;;17.93;24.10;102577.41;4990462;28;98585;-80
2022/03/18 10:06:03;;;;;;;22.90;15.90;;;;;;;18.06;23.85;102587.63;4973930;28;98512;-81
2022/03/18 10:08:53;;;;;;;26.13;15.27;;;;;;;18.21;23.75;102588.06;4958834;28;97291;-81
2022/03/18 10:11:20;;;;;;;25.40;15.38;;;;;;;18.22;23.33;102596.00;4990472;28;96888;-81
2022/03/18 10:13:55;;;;;;;28.10;15.65;;;;;;;17.91;23.25;102579.22;4983389;28;97363;-82
2022/03/18 10:16:41;;;;;;;27.60;16.48;;;;;;;17.91;23.45;102604.00;4942586;28;101646;-82
2022/03/18 10:19:13;;;;;;;25.67;16.08;;;;;;;17.94;23.68;102598.59;4967887;28;97657;-83
2022/03/18 10:21:58;;;;;;;23.02;15.10;;;;;;;17.92;23.72;102605.75;4976226;28;97111;-83
2022/03/18 10:24:33;;;;;;;25.70;15.85;;;;;;;17.88;23.65;102596.13;5005470;28;100213;-84
2022/03/18 10:27:12;;;;;;;27.88;14.50;;;;;;;17.77;23.35;102600.81;4974112;28;101183;-84
2022/03/18 10:29:47;;;;;;;26.48;15.77;;;;;;;17.50;23.60;102608.63;4978781;28;96782;-83
2022/03/18 10:32:15;;;;;;;29.38;15.90;;;;;;;17.43;24.11;102605.28;4967423;28;97281;-83
2022/03/18 10:37:39;;;;;;;23.30;15.25;;;;;;;16.98;23.60;102599.38;4992379;28;101270;-82
2022/03/18 10:40:05;;;;;;;24.27;15.55;;;;;;;16.67;23.82;102602.75;4960037;28;97414;-82
2022/03/18 10:42:31;;;;;;;26.90;15.55;;;;;;;16.40;24.39;102580.38;4963736;28;97561;-81
2022/03/18 10:44:59;;;;;;;30.13;15.18;;;;;;;16.48;25.15;102598.78;5010229;28;97149;-81
2022/03/18 10:47:33;;;;;;;26.48;15.65;;;;;;;16.38;24.93;102614.00;4981926;28;97888;-81
2022/03/18 10:50:11;;;;;;;24.85;14.55;;;;;;;15.96;25.22;102611.34;4982118;28;97098;-79
2022/03/18 10:52:48;;;;;;;27.90;15.75;;;;;;;15.68;25.36;102610.16;5007289;28;97489;-80
2022/03/18 10:55:22;;;;;;;22.55;15.07;;;;;;;15.54;25.51;102616.56;5006771;28;100562;-79
2022/03/18 10:57:50;;;;;;;25.42;15.77;;;;;;;15.52;25.93;102613.06;4973479;28;97809;-80
2022/03/18 11:00:17;;;;;;;23.00;13.50;;;;;;;15.38;25.53;102588.63;4991450;28;97747;-77
2022/03/18 11:02:44;;;;;;;21.25;13.57;;;;;;;15.34;25.78;102603.69;5008056;28;97099;-80
2022/03/18 11:05:12;;;;;;;21.23;14.05;;;;;;;15.19;26.22;102600.44;4990404;28;99859;-79
2022/03/18 11:07:41;;;;;;;23.25;13.75;;;;;;;15.14;25.82;102614.59;4972040;28;101477;-79
2022/03/18 11:12:56;;;;;;;27.08;16.00;;;;;;;14.96;26.31;102599.03;4978675;28;96963;-79
2022/03/18 11:15:24;;;;;;;25.77;14.25;;;;;;;14.87;26.20;102605.34;4991327;28;100672;-78
2022/03/18 11:17:50;;;;;;;18.92;12.77;;;;;;;14.55;25.62;102597.06;4945504;28;100869;-79
2022/03/18 11:20:20;;;;;;;18.92;11.55;;;;;;;14.35;25.58;102610.50;4991502;28;97080;-80
2022/03/18 11:22:47;;;;;;;18.85;11.48;;;;;;;14.16;25.43;102616.00;4978011;28;98148;-80
2022/03/18 11:25:15;;;;;;;25.02;13.07;;;;;;;14.10;25.24;102615.22;4979767;28;97519;-81
2022/03/18 11:27:44;;;;;;;23.98;11.60;;;;;;;13.95;25.23;102616.28;4952745;28;101491;-80
2022/03/18 11:30:22;;;;;;;22.95;14.23;;;;;;;13.79;25.60;102618.22;4957872;28;97336;-80
2022/03/18 11:33:06;;;;;;;16.08;10.93;;;;;;;13.68;24.86;102597.22;4997328;28;97563;-79
2022/03/18 11:35:49;;;;;;;16.85;12.05;;;;;;;13.78;25.79;102613.81;5003125;28;97787;-79